createdAt,value
2023-05-14T00:03:47.588Z,2.70
2023-05-14T00:06:16.878Z,2.72
2023-05-14T00:08:43.901Z,2.45
2023-05-14T00:11:11.133Z,2.70
2023-05-14T00:18:05.496Z,3.78
2023-05-14T00:20:32.596Z,2.95
2023-05-14T00:27:24.940Z,4.00
2023-05-14T00:30:02.882Z,3.08
2023-05-14T00:32:31.716Z,3.95
2023-05-14T00:39:36.011Z,3.55
2023-05-14T00:42:03.023Z,3.50
2023-05-14T00:48:56.069Z,3.08
2023-05-14T00:51:23.717Z,3.90
2023-05-14T00:53:51.096Z,3.85
2023-05-14T00:56:19.244Z,4.18
2023-05-14T01:03:11.104Z,3.72
2023-05-14T01:15:05.076Z,5.00
2023-05-14T01:22:03.435Z,4.68
2023-05-14T01:33:48.601Z,4.47
2023-05-14T01:40:51.248Z,3.45
2023-05-14T01:47:48.582Z,3.60
2023-05-14T01:50:16.227Z,3.58
2023-05-14T01:57:11.189Z,3.05
2023-05-14T01:59:38.228Z,3.33
2023-05-14T02:06:40.356Z,3.92
2023-05-14T02:09:07.498Z,3.63
2023-05-14T02:16:01.387Z,3.80
2023-05-14T02:18:51.148Z,3.25
2023-05-14T02:21:18.343Z,3.10
2023-05-14T02:28:13.398Z,3.20
2023-05-14T02:30:40.564Z,3.33
2023-05-14T02:37:32.931Z,3.55
2023-05-14T02:40:00.237Z,4.10
2023-05-14T02:42:27.347Z,3.67
2023-05-14T02:49:19.834Z,3.55
2023-05-14T02:51:49.798Z,3.97
2023-05-14T02:54:16.965Z,3.58
2023-05-14T02:56:44.179Z,3.50
2023-05-14T03:01:16.897Z,2.58
2023-05-14T03:04:06.043Z,3.22
2023-05-14T03:06:33.123Z,3.50
2023-05-14T03:13:25.494Z,3.35
2023-05-14T03:15:55.182Z,3.85
2023-05-14T03:22:57.586Z,3.72
2023-05-14T03:36:53.842Z,3.30
2023-05-14T03:39:21.344Z,3.53
2023-05-14T03:41:48.502Z,3.42
2023-05-14T03:48:46.711Z,3.30
2023-05-14T03:55:50.870Z,3.58
2023-05-14T03:58:18.536Z,3.47
2023-05-14T04:00:45.747Z,3.42
2023-05-14T04:10:14.132Z,3.35
2023-05-14T04:19:24.755Z,3.92
2023-05-14T04:21:51.758Z,3.42
2023-05-14T04:24:18.791Z,3.20
2023-05-14T04:33:27.972Z,3.72
2023-05-14T04:35:54.977Z,3.38
2023-05-14T04:47:22.894Z,3.10
2023-05-14T04:49:50.176Z,3.42
2023-05-14T04:52:17.113Z,2.85
2023-05-14T05:01:31.601Z,3.35
2023-05-14T05:03:58.863Z,3.60
2023-05-14T05:09:13.831Z,3.33
2023-05-14T05:17:35.051Z,3.53
2023-05-14T05:20:04.170Z,3.08
2023-05-14T05:25:16.937Z,3.95
2023-05-14T05:27:43.949Z,3.83
2023-05-14T05:41:05.886Z,3.20
2023-05-14T05:46:15.183Z,2.92
2023-05-14T05:48:42.136Z,2.83
2023-05-14T05:51:09.212Z,2.70
2023-05-14T05:53:42.309Z,3.83
2023-05-14T06:07:39.602Z,3.70
2023-05-14T06:26:41.739Z,2.65
2023-05-14T06:31:38.234Z,2.47
2023-05-14T06:34:05.334Z,2.65
2023-05-14T06:53:02.317Z,2.20
2023-05-14T06:55:29.349Z,1.88
2023-05-14T06:57:56.344Z,2.05
2023-05-14T07:00:23.699Z,2.17
2023-05-14T07:02:57.022Z,2.03
2023-05-14T07:05:25.215Z,2.15
2023-05-14T07:07:52.393Z,1.80
2023-05-14T07:10:19.443Z,1.40
2023-05-14T07:24:15.704Z,2.08
2023-05-14T07:26:42.749Z,2.08
2023-05-14T07:29:12.298Z,1.80
2023-05-14T07:37:11.953Z,2.13
2023-05-14T07:39:39.223Z,2.05
2023-05-14T07:42:06.448Z,1.13
2023-05-14T07:44:33.436Z,1.50
2023-05-14T07:47:00.599Z,1.40
2023-05-14T07:49:27.745Z,1.80
2023-05-14T07:51:54.710Z,1.42
2023-05-14T07:54:21.786Z,1.90
2023-05-14T07:56:48.747Z,1.80
2023-05-14T07:59:15.872Z,1.40
2023-05-14T08:01:42.936Z,1.92
2023-05-14T08:04:12.337Z,1.92
2023-05-14T08:06:39.415Z,1.73
2023-05-14T08:09:06.898Z,1.70
2023-05-14T08:11:33.986Z,1.88
2023-05-14T08:14:01.105Z,2.10
2023-05-14T08:16:28.236Z,2.00
2023-05-14T08:18:55.492Z,1.88
2023-05-14T08:21:22.911Z,1.65
2023-05-14T08:23:49.865Z,2.78
2023-05-14T08:26:16.842Z,1.60
2023-05-14T08:28:43.814Z,2.00
2023-05-14T08:31:10.998Z,1.88
2023-05-14T08:33:38.153Z,1.92
2023-05-14T08:36:05.641Z,1.90
2023-05-14T08:38:32.640Z,2.03
2023-05-14T08:41:00.621Z,1.90
2023-05-14T08:43:35.485Z,2.00
2023-05-14T08:46:07.172Z,1.95
2023-05-14T08:48:35.420Z,1.73
2023-05-14T08:51:03.130Z,1.60
2023-05-14T08:53:31.359Z,2.00
2023-05-14T08:56:00.319Z,1.90
2023-05-14T08:58:29.693Z,1.90
2023-05-14T09:00:59.556Z,2.05
2023-05-14T09:03:27.144Z,1.70
2023-05-14T09:05:54.615Z,1.67
2023-05-14T09:08:22.095Z,1.50
2023-05-14T09:10:49.262Z,1.60
2023-05-14T09:13:16.537Z,1.67
2023-05-14T09:15:43.602Z,1.90
2023-05-14T09:18:29.398Z,1.70
2023-05-14T09:20:56.500Z,1.80
2023-05-14T09:23:26.761Z,1.83
2023-05-14T09:25:53.819Z,3.28
2023-05-14T09:28:23.045Z,1.58
2023-05-14T09:30:53.040Z,1.85
2023-05-14T09:33:28.452Z,1.65
2023-05-14T09:35:59.738Z,2.00
2023-05-14T09:38:33.201Z,1.85
2023-05-14T09:41:01.228Z,1.60
2023-05-14T09:43:28.900Z,1.88
2023-05-14T09:46:01.275Z,1.75
2023-05-14T09:48:29.046Z,2.08
2023-05-14T09:50:56.103Z,1.50
2023-05-14T09:53:23.390Z,1.50
2023-05-14T09:55:50.898Z,2.00
2023-05-14T09:58:19.478Z,1.80
2023-05-14T10:00:47.992Z,2.25
2023-05-14T10:03:18.752Z,1.80
2023-05-14T10:05:49.648Z,5.43
2023-05-14T10:08:26.897Z,2.15
2023-05-14T10:13:31.881Z,1.95
2023-05-14T10:16:09.798Z,1.70
2023-05-14T10:18:43.153Z,1.90
2023-05-14T10:21:11.793Z,1.92
2023-05-14T10:23:39.208Z,2.40
2023-05-14T10:26:07.064Z,1.50
2023-05-14T10:28:34.456Z,1.30
2023-05-14T10:31:01.543Z,1.50
2023-05-14T10:33:28.847Z,1.48
2023-05-14T10:36:05.846Z,1.30
2023-05-14T10:38:35.118Z,1.60
2023-05-14T10:41:04.276Z,1.67
2023-05-14T10:43:36.470Z,2.40
2023-05-14T10:46:04.515Z,2.42
2023-05-14T10:48:33.032Z,1.90
2023-05-14T10:51:03.460Z,1.92
2023-05-14T10:53:36.429Z,1.95
2023-05-14T10:56:11.780Z,2.10
2023-05-14T10:58:44.049Z,1.70
2023-05-14T11:01:13.115Z,1.60
2023-05-14T11:06:31.563Z,1.65
2023-05-14T11:09:02.952Z,1.50
2023-05-14T11:11:30.132Z,1.58
2023-05-14T11:13:58.301Z,1.60
2023-05-14T11:16:30.921Z,1.73
2023-05-14T11:19:03.784Z,1.70
2023-05-14T11:21:33.113Z,1.60
2023-05-14T11:24:01.052Z,1.67
2023-05-14T11:26:28.103Z,1.55
2023-05-14T11:28:55.464Z,1.80
2023-05-14T11:31:22.699Z,1.65
2023-05-14T11:34:14.887Z,1.70
2023-05-14T11:36:42.448Z,1.52
2023-05-14T11:39:27.956Z,1.85
2023-05-14T11:41:55.029Z,1.90
2023-05-14T11:44:22.910Z,1.50
2023-05-14T11:46:57.657Z,1.67
2023-05-14T11:49:25.759Z,1.88
2023-05-14T11:52:00.323Z,1.67
2023-05-14T11:54:31.009Z,1.60
2023-05-14T11:56:59.509Z,4.30
2023-05-14T11:59:45.881Z,1.40
2023-05-14T12:02:15.164Z,1.30
2023-05-14T12:04:43.072Z,1.90
2023-05-14T12:07:12.395Z,1.52
2023-05-14T12:09:44.276Z,2.40
2023-05-14T12:12:12.901Z,1.50
2023-05-14T12:14:43.840Z,1.90
2023-05-14T12:17:18.057Z,1.77
2023-05-14T12:19:47.013Z,1.48
2023-05-14T12:22:38.844Z,1.70
2023-05-14T12:25:12.976Z,1.50
2023-05-14T12:27:40.623Z,1.70
2023-05-14T12:32:42.293Z,2.20
2023-05-14T12:35:09.727Z,1.60
2023-05-14T12:37:37.746Z,1.88
2023-05-14T12:40:09.367Z,1.63
2023-05-14T12:42:37.454Z,2.20
2023-05-14T12:45:08.176Z,1.83
2023-05-14T12:47:36.499Z,1.90
2023-05-14T12:50:04.068Z,2.30
2023-05-14T12:52:38.565Z,2.30
2023-05-14T12:55:08.316Z,2.88
2023-05-14T12:57:35.858Z,2.58
2023-05-14T13:00:07.238Z,1.98
2023-05-14T13:02:42.771Z,2.15
2023-05-14T13:05:12.310Z,1.53
2023-05-14T13:07:39.907Z,2.28
2023-05-14T13:10:07.531Z,1.98
2023-05-14T13:12:34.597Z,2.65
2023-05-14T13:15:01.595Z,2.53
2023-05-14T13:17:31.139Z,2.00
2023-05-14T13:19:58.411Z,2.15
2023-05-14T13:22:25.547Z,2.20
2023-05-14T13:24:52.524Z,2.20
2023-05-14T13:27:19.574Z,2.35
2023-05-14T13:29:46.609Z,2.25
2023-05-14T13:32:13.692Z,1.80
2023-05-14T13:34:40.778Z,2.42
2023-05-14T13:37:33.363Z,2.17
2023-05-14T13:43:36.465Z,1.92
2023-05-14T13:52:33.207Z,2.10
2023-05-14T13:55:00.271Z,2.13
2023-05-14T13:57:27.416Z,2.20
2023-05-14T13:59:54.470Z,1.80
2023-05-14T14:08:26.921Z,1.98
2023-05-14T14:10:55.574Z,2.15
2023-05-14T14:13:23.411Z,2.00
2023-05-14T14:15:51.949Z,2.08
2023-05-14T14:19:12.557Z,3.70
2023-05-14T14:21:42.931Z,2.30
2023-05-14T14:24:10.246Z,2.50
2023-05-14T14:26:37.412Z,3.72
2023-05-14T14:29:04.598Z,2.95
2023-05-14T14:32:48.466Z,2.58
2023-05-14T14:57:55.183Z,2.40
2023-05-14T18:49:59.346Z,3.30
2023-05-14T18:52:28.554Z,3.10
2023-05-14T19:22:57.573Z,3.70
2023-05-14T19:46:44.182Z,3.75
2023-05-14T20:24:34.080Z,3.65
2023-05-14T21:01:32.383Z,4.97
2023-05-14T21:04:24.668Z,6.80
2023-05-14T21:07:17.924Z,5.57
2023-05-14T21:10:11.027Z,7.35
2023-05-14T21:12:38.114Z,6.30
2023-05-14T22:52:11.021Z,5.97
2023-05-14T22:55:04.263Z,6.25
2023-05-14T22:58:47.894Z,5.95
2023-05-14T23:01:15.144Z,5.72
2023-05-14T23:04:08.064Z,5.43
2023-05-14T23:06:59.573Z,5.70
